CDT,Max TemperatureF,Mean TemperatureF,Min TemperatureF,Max Dew PointF,MeanDew PointF,Min DewpointF,Max Humidity, Mean Humidity, Min Humidity, Max Sea Level PressureIn, Mean Sea Level PressureIn, Min Sea Level PressureIn, Max VisibilityMiles, Mean VisibilityMiles, Min VisibilityMiles, Max Wind SpeedMPH, Mean Wind SpeedMPH, Max Gust SpeedMPH,PrecipitationIn, CloudCover, Events, WindDirDegrees
2013-5-1,80,61,42,60,49,38,82,64,45,30.16,30.00,29.81,10,10,2,28,11,35,0.06,5,Rain-Thunderstorm,81
2013-5-2,42,37,32,38,34,30,100,93,85,30.40,30.33,30.17,10,4,0,29,16,37,0.62,8,Fog-Rain-Snow,357
2013-5-3,39,36,33,34,33,30,100,88,76,30.30,30.11,29.90,10,7,2,22,12,28,0.37,8,Rain-Snow,345
2013-5-4,48,41,33,43,36,30,100,86,71,30.04,29.92,29.84,10,5,1,14,6,17,0.13,8,Rain-Snow,6
2013-5-5,56,50,43,48,45,43,100,89,77,30.12,30.06,30.01,10,4,0,14,10,18,0.02,8,Fog,338
2013-5-6,68,59,50,53,50,47,93,76,58,30.12,30.07,30.02,10,7,3,13,6,17,0.00,5,,345
2013-5-7,73,61,49,55,50,47,96,69,41,30.08,30.03,29.97,10,7,2,12,4,20,0.00,0,,157
2013-5-8,72,65,57,58,55,48,80,71,61,30.01,29.95,29.88,10,10,8,23,7,30,0.10,5,Rain-Thunderstorm,155
2013-5-9,74,66,58,59,57,55,100,79,57,29.93,29.88,29.84,10,9,4,16,5,24,0.04,5,Rain-Thunderstorm,292
2013-5-10,67,60,52,55,50,44,93,69,45,30.05,29.99,29.90,10,9,5,17,7,23,0.00,5,,346
2013-5-11,66,57,47,47,34,22,93,58,22,30.24,30.14,30.04,10,10,8,28,11,36,0.00,0,,336
2013-5-12,65,52,39,42,30,23,71,47,23,30.29,30.22,30.14,10,10,9,13,3,15,0.00,1,,272
2013-5-13,75,61,47,55,48,41,82,63,43,30.16,30.07,29.94,10,10,10,16,8,22,0.00,0,,163
2013-5-14,91,77,62,57,51,45,73,47,21,29.91,29.84,29.78,10,10,10,25,12,36,0.00,0,,214
2013-5-15,84,73,61,66,59,52,93,70,47,29.91,29.85,29.81,10,10,8,18,10,25,0.00,0,,199
2013-5-16,78,69,60,63,60,57,97,77,56,29.89,29.85,29.79,10,10,8,17,7,22,0.00,4,,147
2013-5-17,76,68,59,61,59,57,100,79,58,29.95,29.89,29.84,10,9,4,9,4,18,0.00,5,,155
2013-5-18,83,73,63,70,65,59,90,74,58,29.91,29.82,29.72,10,9,6,18,9,24,0.00,3,,137
2013-5-19,82,72,62,68,61,56,93,78,62,29.87,29.71,29.57,10,7,1,38,11,53,0.97,5,Rain-Thunderstorm,177
2013-5-20,76,69,61,67,62,58,97,85,73,29.77,29.69,29.62,10,10,8,15,8,24,T,3,Rain-Thunderstorm,185
2013-5-21,74,64,53,61,51,48,89,68,46,29.77,29.72,29.68,10,10,10,16,6,23,0.00,1,,258
2013-5-22,66,60,54,51,49,46,83,68,52,29.94,29.82,29.73,10,10,10,16,8,23,0.00,6,,297
2013-5-23,69,61,52,52,50,47,83,71,58,30.21,30.11,29.95,10,10,10,18,8,23,0.00,4,,18
2013-5-24,71,60,49,53,48,45,96,70,44,30.31,30.23,30.13,10,10,9,20,9,28,0.00,1,,133
2013-5-25,81,71,60,64,57,46,78,66,54,30.15,30.09,29.99,10,10,10,21,10,30,0.00,3,,179
2013-5-26,83,75,66,68,65,63,93,78,62,30.04,29.97,29.88,10,10,9,21,12,29,0.00,3,,181
2013-5-27,81,72,62,70,64,61,100,81,62,29.92,29.81,29.66,10,7,1,25,13,37,1.57,7,Rain-Thunderstorm,127
2013-5-28,77,74,70,70,67,64,84,79,73,29.80,29.72,29.63,10,9,4,21,10,29,0.07,7,Rain-Thunderstorm,179
2013-5-29,79,71,63,66,65,61,87,76,64,29.80,29.73,29.65,10,10,10,28,16,38,0.17,6,Rain,164
2013-5-30,72,67,62,63,61,59,93,83,73,29.74,29.68,29.62,10,6,0,24,10,33,1.34,6,Fog-Rain-Thunderstorm,186
2013-5-31,79,68,57,68,61,55,97,80,62,29.75,29.72,29.65,10,8,0,23,6,29,3.18,5,Fog-Rain-Thunderstorm,101